This is the latest recevied weather packets stored in our database for station/object DO7ZT-10. If no packets are shown the sender has not sent any weather packets the latest 1 day(s).
| Time | Temp. | Humidity | Pressure | Rain* | Wind** | Luminosity | Snow |
|---|---|---|---|---|---|---|---|
| 1778392655 | 11.67° C | 93% | 1016.6 hPa | - | - | - | - |
| 1778391755 | 11.11° C | 97% | 1016.6 hPa | - | - | - | - |
| 1778390855 | 10.56° C | 99% | 1016.6 hPa | - | - | - | - |
| 1778389955 | 10° C | 100% | 1016.7 hPa | - | - | - | - |
| 1778389055 | 9.44° C | 100% | 1016.6 hPa | - | - | - | - |
| 1778388155 | 8.89° C | 100% | 1016.7 hPa | - | - | - | - |
| 1778387255 | 7.78° C | 100% | 1016.7 hPa | - | - | - | - |
| 1778386355 | 7.78° C | 100% | 1016.7 hPa | - | - | - | - |
| 1778385455 | 7.22° C | 100% | 1016.7 hPa | - | - | - | - |
| 1778384555 | 7.22° C | 100% | 1016.7 hPa | - | - | - | - |
| 1778383655 | 7.22° C | 100% | 1016.8 hPa | - | - | - | - |
| 1778382755 | 7.22° C | 100% | 1016.9 hPa | - | - | - | - |
| 1778381854 | 6.67° C | 100% | 1016.8 hPa | - | - | - | - |
| 1778380954 | 6.67° C | 100% | 1017.1 hPa | - | - | - | - |
| 1778379154 | 7.22° C | 100% | 1017.5 hPa | - | - | - | - |
| 1778378254 | 7.22° C | 100% | 1017.6 hPa | - | - | - | - |
| 1778377354 | 6.67° C | 100% | 1017.7 hPa | - | - | - | - |
| 1778376454 | 6.67° C | 100% | 1017.9 hPa | - | - | - | - |
| 1778375554 | 6.67° C | 100% | 1018.1 hPa | - | - | - | - |
| 1778374654 | 6.67° C | 100% | 1018.3 hPa | - | - | - | - |
| 1778373754 | 6.67° C | 100% | 1018.2 hPa | - | - | - | - |
| 1778372854 | 6.67° C | 100% | 1018.3 hPa | - | - | - | - |
| 1778371953 | 6.67° C | 100% | 1018.5 hPa | - | - | - | - |
| 1778371053 | 6.67° C | 100% | 1018.6 hPa | - | - | - | - |
| 1778370153 | 6.67° C | 100% | 1018.7 hPa | - | - | - | - |
* Rain since midnight (hover to see other rain measurements)
** Current wind speed in m/s (hover to see current wind gust speed)